Pensacola Beach, FL

7:13 AM CST on December 28, 2014 (GMT -0600)
I-10/Pine Forest | Change Station
CLOSE
Current Station
Personal Weather Station
Location: Pensacola, FL
Elevation: 102 ft
Nearby Weather Stations

Elev 102 ft 30.52 °N, 87.31 °W | Updated 3 minutes ago

Overcast
Overcast
69.4 °F
Feels Like 69.4 °F
N
2.0
Wind Variable Wind from SSW
Gusts 4.0 mph

Today
High -- | Low -- °F
--% Chance of Precip.
Yesterday
High -- | Low -- °F
Precip. -- in
6:43 AM 4:56 PM
Waxing Crescent, 47% visible
Pressure 30.09 in
Visibility 7.0 miles
Clouds Mostly Cloudy 900 ft
Overcast 2000 ft
Dew Point 68 °F
Humidity 97%
Rainfall 0.00 in
Snow Depth Not available.
UV 0 out of 12
Pollen .50 out of 12
Air Quality Not available.
Flu Activity Not available.
SPECI KPNS 281306Z AUTO 20008KT 7SM BKN009 OVC020 21/19 A3009 RMK AO2 CIG 006V011 T02060194

More Conditions Fewer Conditions

Pressure 30.09 in
Visibility 7.0 miles
Clouds Mostly Cloudy 900 ft
Overcast 2000 ft
Dew Point 68 °F
Humidity 97%
Rainfall 0.00 in
Snow Depth Not available.
UV 0 out of 12
Pollen .50 out of 12
Air Quality Not available.
Flu Activity Not available.
SPECI KPNS 281306Z AUTO 20008KT 7SM BKN009 OVC020 21/19 A3009 RMK AO2 CIG 006V011 T02060194

More Conditions Fewer Conditions

10-Day Weather Forecast

Almanac

Astronomy

Dec. 28, 2014 Rise Set
Actual Time
Civil Twilight
Nautical Twilight
Astronomical Twilight
Moon
Length of Visible Light
Length of Day
Tomorrow will be .
, % of the Moon is Illuminated

Today's Extremes

State Highs State Lows

Community

WunderPhotos

Upload Photos

1,781,256 photos uploaded!

WunderBlogs® & News

Nearby

Air Quality

  Air Quality AQ Index Pollutant
Not available.

Snow Depth

Station Depth Elevation

Earthquake Activity

City Distance Mag. Time & Date
Minimum magnitude displayed is 2.5.

Coastal Water Temperatures

Place Temperature

Nearby Weather Stations